createdAt,value
2023-06-04T00:00:15.743Z,17.50
2023-06-04T00:02:43.740Z,17.40
2023-06-04T00:05:11.626Z,17.40
2023-06-04T00:07:39.426Z,17.40
2023-06-04T00:10:09.443Z,17.30
2023-06-04T00:12:37.280Z,17.30
2023-06-04T00:15:05.980Z,17.20
2023-06-04T00:17:33.911Z,17.20
2023-06-04T00:20:01.820Z,17.10
2023-06-04T00:22:29.664Z,17.10
2023-06-04T00:24:57.515Z,17.00
2023-06-04T00:27:26.781Z,17.00
2023-06-04T00:29:54.674Z,17.00
2023-06-04T00:32:22.609Z,17.00
2023-06-04T00:34:53.200Z,17.00
2023-06-04T00:37:21.382Z,17.00
2023-06-04T00:39:49.302Z,17.00
2023-06-04T00:42:17.110Z,17.00
2023-06-04T00:44:46.422Z,17.00
2023-06-04T00:47:14.560Z,16.90
2023-06-04T00:49:42.469Z,16.90
2023-06-04T00:52:10.485Z,16.90
2023-06-04T00:54:39.000Z,16.90
2023-06-04T00:57:08.154Z,16.90
2023-06-04T00:59:36.242Z,16.80
2023-06-04T01:02:08.001Z,16.80
2023-06-04T01:04:38.364Z,16.80
2023-06-04T01:07:06.813Z,16.70
2023-06-04T01:09:34.775Z,16.70
2023-06-04T01:12:05.952Z,16.60
2023-06-04T01:14:34.918Z,16.60
2023-06-04T01:17:09.796Z,16.50
2023-06-04T01:20:12.919Z,16.60
2023-06-04T01:22:44.717Z,16.50
2023-06-04T01:25:20.141Z,16.50
2023-06-04T01:27:51.023Z,16.50
2023-06-04T01:30:19.089Z,16.50
2023-06-04T01:32:48.701Z,16.40
2023-06-04T01:35:16.727Z,16.40
2023-06-04T01:37:45.280Z,16.40
2023-06-04T01:40:14.001Z,16.30
2023-06-04T01:42:42.742Z,16.20
2023-06-04T01:45:11.588Z,16.20
2023-06-04T01:47:39.530Z,16.20
2023-06-04T01:50:10.382Z,16.10
2023-06-04T01:52:38.509Z,16.10
2023-06-04T01:55:06.708Z,16.10
2023-06-04T01:57:34.641Z,16.10
2023-06-04T02:00:02.836Z,16.10
2023-06-04T02:02:30.828Z,16.10
2023-06-04T02:04:58.686Z,16.00
2023-06-04T02:07:27.959Z,16.10
2023-06-04T02:09:55.824Z,16.00
2023-06-04T02:12:23.660Z,16.00
2023-06-04T02:14:51.576Z,16.00
2023-06-04T02:17:19.452Z,16.00
2023-06-04T02:19:50.963Z,16.00
2023-06-04T02:22:18.996Z,16.00
2023-06-04T02:24:49.032Z,15.90
2023-06-04T02:27:16.986Z,15.90
2023-06-04T02:29:44.827Z,15.90
2023-06-04T02:32:12.631Z,15.80
2023-06-04T02:34:40.450Z,15.80
2023-06-04T02:37:08.486Z,15.70
2023-06-04T02:39:36.393Z,15.70
2023-06-04T02:42:06.005Z,15.70
2023-06-04T02:44:33.867Z,15.70
2023-06-04T02:47:01.749Z,15.70
2023-06-04T02:49:29.710Z,15.60
2023-06-04T02:51:57.554Z,15.60
2023-06-04T02:54:25.541Z,15.60
2023-06-04T02:56:54.394Z,15.50
2023-06-04T02:59:23.758Z,15.50
2023-06-04T03:01:51.629Z,15.50
2023-06-04T03:04:19.505Z,15.50
2023-06-04T03:06:48.210Z,15.40
2023-06-04T03:09:16.447Z,15.40
2023-06-04T03:11:44.343Z,15.30
2023-06-04T03:14:12.264Z,15.30
2023-06-04T03:16:42.140Z,15.30
2023-06-04T03:19:12.517Z,15.40
2023-06-04T03:21:40.652Z,15.40
2023-06-04T03:24:08.680Z,15.40
2023-06-04T03:26:36.619Z,15.30
2023-06-04T03:29:04.474Z,15.30
2023-06-04T03:31:33.580Z,15.30
2023-06-04T03:34:03.215Z,15.20
2023-06-04T03:36:32.802Z,15.20
2023-06-04T03:39:00.808Z,15.20
2023-06-04T03:41:28.739Z,15.20
2023-06-04T03:43:56.601Z,15.20
2023-06-04T03:46:26.314Z,15.20
2023-06-04T03:48:54.385Z,15.20
2023-06-04T03:51:23.612Z,15.20
2023-06-04T03:53:51.440Z,15.20
2023-06-04T03:56:19.610Z,15.20
2023-06-04T03:58:47.477Z,15.30
2023-06-04T04:01:15.361Z,15.30
2023-06-04T04:03:44.133Z,15.30
2023-06-04T04:06:12.299Z,15.30
2023-06-04T04:08:43.335Z,15.20
2023-06-04T04:11:11.261Z,15.20
2023-06-04T04:13:39.164Z,15.20
2023-06-04T04:16:07.072Z,15.20
2023-06-04T04:18:35.236Z,15.20
2023-06-04T04:21:03.171Z,15.30
2023-06-04T04:23:31.247Z,15.30
2023-06-04T04:26:00.920Z,15.30
2023-06-04T04:28:31.136Z,15.30
2023-06-04T04:31:00.672Z,15.30
2023-06-04T04:33:32.003Z,15.40
2023-06-04T04:36:00.723Z,15.40
2023-06-04T04:38:29.624Z,15.40
2023-06-04T04:40:58.514Z,15.40
2023-06-04T04:43:34.136Z,15.40
2023-06-04T04:46:01.987Z,15.40
2023-06-04T04:48:29.810Z,15.40
2023-06-04T04:50:57.699Z,15.40
2023-06-04T04:53:25.718Z,15.40
2023-06-04T04:55:53.644Z,15.40
2023-06-04T04:58:21.493Z,15.40
2023-06-04T05:00:50.729Z,15.50
2023-06-04T05:03:18.557Z,15.50
2023-06-04T05:05:46.778Z,15.50
2023-06-04T05:08:14.586Z,15.50
2023-06-04T05:10:42.457Z,15.60
2023-06-04T05:13:12.070Z,15.60
2023-06-04T05:15:40.910Z,15.70
2023-06-04T05:18:10.134Z,15.70
2023-06-04T05:20:38.990Z,15.80
2023-06-04T05:23:07.061Z,15.90
2023-06-04T05:25:34.872Z,15.90
2023-06-04T05:28:02.784Z,15.90
2023-06-04T05:30:30.643Z,15.90
2023-06-04T05:33:00.391Z,15.90
2023-06-04T05:35:29.664Z,15.90
2023-06-04T05:37:57.957Z,15.90
2023-06-04T05:40:25.991Z,16.00
2023-06-04T05:42:53.813Z,16.00
2023-06-04T05:45:21.812Z,16.10
2023-06-04T05:47:49.692Z,16.10
2023-06-04T05:50:17.538Z,16.20
2023-06-04T05:52:46.714Z,16.30
2023-06-04T05:55:15.372Z,16.40
2023-06-04T05:57:43.681Z,16.40
2023-06-04T06:00:14.694Z,16.50
2023-06-04T06:02:42.735Z,16.50
2023-06-04T06:05:10.842Z,16.60
2023-06-04T06:07:38.913Z,16.70
2023-06-04T06:10:09.527Z,16.70
2023-06-04T06:12:37.512Z,16.80
2023-06-04T06:15:06.639Z,16.90
2023-06-04T06:17:35.183Z,16.90
2023-06-04T06:20:07.124Z,17.00
2023-06-04T06:22:35.167Z,17.10
2023-06-04T06:25:03.506Z,17.10
2023-06-04T06:27:32.786Z,17.20
2023-06-04T06:30:00.652Z,17.20
2023-06-04T06:32:29.156Z,17.30
2023-06-04T06:34:57.024Z,17.30
2023-06-04T06:37:24.906Z,17.40
2023-06-04T06:39:52.783Z,17.40
2023-06-04T06:42:20.892Z,17.40
2023-06-04T06:44:50.102Z,17.50
2023-06-04T06:47:17.974Z,17.50
2023-06-04T06:49:45.868Z,17.50
2023-06-04T06:52:13.830Z,17.60
2023-06-04T06:54:41.664Z,17.70
2023-06-04T06:57:10.257Z,17.80
2023-06-04T06:59:38.332Z,17.90
2023-06-04T07:02:07.799Z,17.90
2023-06-04T07:04:35.664Z,18.00
2023-06-04T07:07:04.150Z,18.00
2023-06-04T07:09:31.994Z,18.00
2023-06-04T07:11:59.841Z,18.10
2023-06-04T07:14:27.696Z,18.20
2023-06-04T07:16:55.647Z,18.20
2023-06-04T07:19:24.855Z,18.30
2023-06-04T07:21:54.652Z,18.30
2023-06-04T07:24:22.487Z,18.40
2023-06-04T07:26:50.733Z,18.40
2023-06-04T07:29:18.574Z,18.50
2023-06-04T07:31:46.481Z,18.60
2023-06-04T07:34:14.366Z,18.70
2023-06-04T07:36:43.552Z,18.80
2023-06-04T07:39:11.701Z,18.80
2023-06-04T07:41:39.550Z,18.90
2023-06-04T07:44:07.563Z,19.00
2023-06-04T07:46:35.620Z,19.10
2023-06-04T07:49:03.677Z,19.10
2023-06-04T07:51:31.721Z,19.20
2023-06-04T07:54:01.271Z,19.30
2023-06-04T07:56:29.105Z,19.40
2023-06-04T07:58:57.247Z,19.40
2023-06-04T08:01:25.393Z,19.50
2023-06-04T08:03:53.471Z,19.60
2023-06-04T08:06:21.424Z,19.70
2023-06-04T08:08:51.128Z,19.80
2023-06-04T08:11:20.466Z,19.80
2023-06-04T08:13:48.377Z,19.90
2023-06-04T08:16:16.334Z,20.00
2023-06-04T08:18:44.214Z,20.10
2023-06-04T08:21:12.827Z,20.20
2023-06-04T08:23:40.780Z,20.30
2023-06-04T08:26:09.288Z,20.30
2023-06-04T08:28:39.651Z,20.50
2023-06-04T08:31:07.717Z,20.60
2023-06-04T08:33:35.761Z,20.70
2023-06-04T08:36:03.643Z,20.80
2023-06-04T08:38:31.504Z,21.00
2023-06-04T08:41:02.990Z,21.00
2023-06-04T08:43:31.139Z,21.00
2023-06-04T08:46:02.822Z,21.10
2023-06-04T08:48:30.847Z,21.10
2023-06-04T08:50:58.768Z,21.10
2023-06-04T08:53:26.684Z,21.30
2023-06-04T08:55:54.594Z,21.40
2023-06-04T08:58:22.426Z,21.60
2023-06-04T09:00:51.579Z,21.70
2023-06-04T09:03:21.720Z,21.80
2023-06-04T09:05:51.050Z,21.90
2023-06-04T09:08:19.485Z,22.00
2023-06-04T09:10:47.570Z,22.10
2023-06-04T09:13:16.135Z,22.10
2023-06-04T09:15:44.089Z,22.20
2023-06-04T09:18:12.000Z,22.40
2023-06-04T09:20:41.224Z,22.40
2023-06-04T09:23:15.665Z,22.50
2023-06-04T09:25:44.786Z,22.70
2023-06-04T09:28:12.658Z,22.90
2023-06-04T09:30:40.743Z,23.00
2023-06-04T09:33:09.315Z,23.20
2023-06-04T09:35:37.443Z,23.40
2023-06-04T09:38:07.511Z,23.60
2023-06-04T09:40:39.000Z,23.70
2023-06-04T09:43:07.233Z,23.80
2023-06-04T09:45:36.324Z,24.10
2023-06-04T09:48:08.983Z,24.10
2023-06-04T09:50:39.890Z,24.20
2023-06-04T09:53:16.875Z,24.40
2023-06-04T09:55:44.955Z,24.50
2023-06-04T09:58:13.530Z,24.60
2023-06-04T10:00:41.452Z,24.80
2023-06-04T10:03:09.350Z,24.80
2023-06-04T10:05:37.210Z,24.90
2023-06-04T10:08:05.635Z,25.10
2023-06-04T10:10:36.531Z,25.30
2023-06-04T10:13:07.136Z,25.30
2023-06-04T10:15:35.472Z,25.30
2023-06-04T10:18:04.251Z,25.50
2023-06-04T10:20:33.053Z,25.70
2023-06-04T10:23:01.121Z,25.90
2023-06-04T10:25:29.052Z,26.10
2023-06-04T10:27:59.219Z,26.00
2023-06-04T10:30:27.605Z,26.10
2023-06-04T10:32:55.562Z,26.40
2023-06-04T10:35:32.423Z,26.70
2023-06-04T10:38:10.024Z,26.90
2023-06-04T10:40:38.166Z,27.20
2023-06-04T10:43:10.909Z,27.40
2023-06-04T10:45:38.983Z,27.40
2023-06-04T10:48:07.817Z,27.60
2023-06-04T10:50:36.647Z,27.80
2023-06-04T10:53:04.764Z,28.10
2023-06-04T10:55:32.877Z,28.30
2023-06-04T10:58:01.844Z,28.40
2023-06-04T11:00:40.402Z,28.30
2023-06-04T11:03:09.902Z,27.80
2023-06-04T11:05:38.094Z,27.80
2023-06-04T11:08:06.042Z,27.70
2023-06-04T11:10:35.865Z,27.90
2023-06-04T11:13:04.443Z,28.30
2023-06-04T11:15:42.593Z,28.80
2023-06-04T11:18:11.332Z,28.70
2023-06-04T11:20:39.287Z,29.00
2023-06-04T11:23:07.272Z,28.90
2023-06-04T11:25:35.407Z,29.00
2023-06-04T11:28:03.755Z,29.30
2023-06-04T11:30:31.624Z,29.40
2023-06-04T11:33:04.227Z,29.60
2023-06-04T11:35:32.084Z,30.00
2023-06-04T11:38:00.421Z,30.30
2023-06-04T11:40:28.808Z,30.50
2023-06-04T11:42:56.766Z,30.70
2023-06-04T11:45:24.831Z,30.50
2023-06-04T11:47:54.529Z,30.50
2023-06-04T11:50:24.483Z,30.60
2023-06-04T11:52:54.358Z,30.80
2023-06-04T11:55:22.688Z,30.80
2023-06-04T11:57:51.058Z,30.90
2023-06-04T12:00:20.302Z,31.20
2023-06-04T12:02:53.400Z,31.40
2023-06-04T12:05:24.502Z,31.60
2023-06-04T12:07:52.738Z,31.80
2023-06-04T12:10:20.826Z,31.70
2023-06-04T12:12:49.115Z,31.80
2023-06-04T12:15:21.443Z,31.90
2023-06-04T12:17:53.164Z,31.90
2023-06-04T12:20:21.328Z,32.00
2023-06-04T12:22:53.179Z,32.00
2023-06-04T12:25:28.107Z,32.00
2023-06-04T12:27:56.080Z,32.30
2023-06-04T12:30:24.492Z,32.50
2023-06-04T12:32:52.769Z,32.60
2023-06-04T12:35:21.870Z,32.70
2023-06-04T12:37:51.098Z,32.70
2023-06-04T12:40:19.097Z,32.80
2023-06-04T12:42:47.022Z,32.80
2023-06-04T12:45:15.230Z,32.70
2023-06-04T12:47:43.932Z,33.00
2023-06-04T12:50:12.298Z,33.00
2023-06-04T12:52:40.144Z,32.90
2023-06-04T12:55:10.987Z,33.00
2023-06-04T12:57:38.833Z,32.90
2023-06-04T13:00:08.362Z,32.70
2023-06-04T13:02:36.678Z,32.80
2023-06-04T13:05:04.985Z,33.00
2023-06-04T13:07:32.844Z,33.20
2023-06-04T13:10:01.628Z,33.20
2023-06-04T13:12:30.894Z,32.40
2023-06-04T13:14:58.836Z,32.00
2023-06-04T13:17:26.733Z,32.20
2023-06-04T13:19:55.008Z,32.50
2023-06-04T13:22:23.042Z,33.00
2023-06-04T13:24:50.924Z,33.30
2023-06-04T13:27:18.749Z,33.20
2023-06-04T13:29:48.367Z,33.00
2023-06-04T13:32:16.439Z,32.70
2023-06-04T13:34:44.428Z,32.80
2023-06-04T13:37:13.166Z,33.10
2023-06-04T13:39:41.149Z,32.90
2023-06-04T13:42:09.244Z,32.90
2023-06-04T13:44:37.122Z,33.00
2023-06-04T13:47:06.844Z,33.00
2023-06-04T13:49:35.502Z,33.20
2023-06-04T13:52:03.445Z,33.30
2023-06-04T13:54:32.559Z,33.30
2023-06-04T13:57:03.266Z,33.30
2023-06-04T13:59:32.078Z,33.60
2023-06-04T14:01:59.978Z,33.70
2023-06-04T14:04:29.296Z,33.90
2023-06-04T14:06:57.160Z,33.70
2023-06-04T14:09:25.011Z,33.70
2023-06-04T14:11:52.890Z,33.80
2023-06-04T14:14:20.817Z,33.70
2023-06-04T14:16:48.839Z,33.50
2023-06-04T14:19:17.264Z,33.20
2023-06-04T14:21:46.551Z,32.50
2023-06-04T14:24:14.491Z,31.80
2023-06-04T14:26:42.388Z,31.90
2023-06-04T14:29:10.325Z,32.20
2023-06-04T14:31:38.238Z,32.50
2023-06-04T14:34:08.033Z,33.00
2023-06-04T14:36:35.989Z,33.00
2023-06-04T14:39:05.243Z,33.10
2023-06-04T14:41:33.132Z,33.10
2023-06-04T14:44:01.050Z,33.00
2023-06-04T14:46:29.144Z,33.20
2023-06-04T14:48:57.056Z,33.30
2023-06-04T14:51:25.133Z,33.60
2023-06-04T14:53:52.989Z,33.70
2023-06-04T14:56:23.554Z,33.80
2023-06-04T14:58:51.502Z,33.80
2023-06-04T15:01:19.533Z,33.60
2023-06-04T15:03:47.497Z,33.60
2023-06-04T15:06:19.358Z,33.60
2023-06-04T15:08:48.150Z,33.70
2023-06-04T15:11:16.170Z,33.60
2023-06-04T15:13:45.751Z,33.70
2023-06-04T15:16:13.641Z,33.50
2023-06-04T15:18:41.803Z,33.50
2023-06-04T15:21:10.596Z,33.60
2023-06-04T15:23:38.721Z,33.60
2023-06-04T15:26:06.729Z,33.40
2023-06-04T15:28:34.560Z,33.40
2023-06-04T15:31:03.795Z,33.40
2023-06-04T15:33:31.656Z,33.40
2023-06-04T15:35:59.947Z,33.30
2023-06-04T15:38:28.134Z,33.30
2023-06-04T15:40:57.031Z,33.40
2023-06-04T15:43:24.831Z,33.40
2023-06-04T15:45:52.773Z,32.90
2023-06-04T15:48:22.321Z,32.50
2023-06-04T15:50:50.449Z,32.50
2023-06-04T15:53:19.090Z,32.50
2023-06-04T15:55:46.969Z,32.50
2023-06-04T15:58:14.816Z,32.40
2023-06-04T16:00:42.717Z,32.20
2023-06-04T16:03:10.613Z,32.30
2023-06-04T16:05:39.899Z,32.40
2023-06-04T16:08:07.784Z,32.40
2023-06-04T16:10:35.718Z,32.30
2023-06-04T16:13:03.596Z,32.10
2023-06-04T16:15:31.492Z,31.80
2023-06-04T16:17:59.475Z,31.70
2023-06-04T16:20:27.375Z,31.40
2023-06-04T16:22:56.616Z,31.30
2023-06-04T16:25:24.434Z,31.20
2023-06-04T16:27:52.543Z,31.00
2023-06-04T16:30:20.537Z,31.00
2023-06-04T16:32:48.500Z,31.00
2023-06-04T16:35:16.632Z,31.00
2023-06-04T16:37:44.508Z,31.00
2023-06-04T16:40:14.198Z,31.00
2023-06-04T16:42:42.103Z,30.90
2023-06-04T16:45:11.032Z,30.60
2023-06-04T16:47:41.012Z,30.30
2023-06-04T16:50:09.578Z,30.10
2023-06-04T16:52:37.994Z,29.90
2023-06-04T16:55:06.879Z,29.70
2023-06-04T16:57:36.218Z,29.50
2023-06-04T17:00:17.192Z,29.20
2023-06-04T17:02:52.709Z,29.00
2023-06-04T17:05:25.178Z,28.60
2023-06-04T17:07:53.566Z,28.30
2023-06-04T17:10:21.514Z,28.10
2023-06-04T17:12:50.877Z,27.90
2023-06-04T17:15:18.878Z,27.70
2023-06-04T17:17:49.210Z,27.40
2023-06-04T17:20:18.897Z,27.10
2023-06-04T17:22:46.747Z,26.90
2023-06-04T17:25:14.990Z,26.80
2023-06-04T17:27:43.370Z,26.70
2023-06-04T17:30:13.512Z,26.70
2023-06-04T17:32:41.436Z,26.60
2023-06-04T17:35:10.726Z,26.50
2023-06-04T17:37:38.622Z,26.40
2023-06-04T17:40:08.279Z,26.40
2023-06-04T17:42:36.649Z,26.20
2023-06-04T17:45:08.137Z,26.10
2023-06-04T17:47:37.415Z,26.00
2023-06-04T17:50:07.904Z,26.00
2023-06-04T17:52:35.982Z,25.80
2023-06-04T17:55:03.982Z,25.80
2023-06-04T17:57:32.113Z,25.60
2023-06-04T17:59:59.942Z,25.50
2023-06-04T18:02:27.815Z,25.40
2023-06-04T18:04:57.352Z,25.20
2023-06-04T18:07:25.185Z,25.10
2023-06-04T18:09:53.086Z,25.00
2023-06-04T18:12:20.942Z,25.00
2023-06-04T18:14:49.524Z,25.00
2023-06-04T18:17:17.446Z,24.90
2023-06-04T18:19:46.075Z,24.80
2023-06-04T18:22:15.660Z,24.80
2023-06-04T18:24:43.554Z,24.70
2023-06-04T18:27:11.405Z,24.70
2023-06-04T18:29:39.302Z,24.60
2023-06-04T18:32:07.791Z,24.60
2023-06-04T18:34:35.645Z,24.50
2023-06-04T18:37:03.493Z,24.40
2023-06-04T18:39:32.718Z,24.30
2023-06-04T18:42:02.195Z,24.30
2023-06-04T18:44:30.110Z,24.20
2023-06-04T18:46:58.028Z,24.10
2023-06-04T18:49:25.919Z,24.00
2023-06-04T18:51:53.900Z,23.90
2023-06-04T18:54:21.767Z,23.80
2023-06-04T18:56:50.919Z,23.70
2023-06-04T18:59:18.899Z,23.70
2023-06-04T19:01:46.867Z,23.70
2023-06-04T19:04:14.888Z,23.60
2023-06-04T19:06:42.922Z,23.60
2023-06-04T19:09:10.881Z,23.50
2023-06-04T19:11:40.505Z,23.40
2023-06-04T19:14:10.828Z,23.40
2023-06-04T19:16:39.070Z,23.40
2023-06-04T19:19:09.728Z,23.30
2023-06-04T19:21:37.883Z,23.30
2023-06-04T19:24:09.211Z,23.20
2023-06-04T19:26:37.256Z,23.20
2023-06-04T19:29:05.095Z,23.20
2023-06-04T19:31:34.378Z,23.10
2023-06-04T19:34:02.253Z,23.00
2023-06-04T19:36:30.111Z,22.90
2023-06-04T19:38:59.192Z,22.90
2023-06-04T19:41:28.178Z,22.90
2023-06-04T19:43:56.086Z,22.90
2023-06-04T19:46:24.335Z,22.80
2023-06-04T19:48:53.578Z,22.80
2023-06-04T19:51:22.071Z,22.80
2023-06-04T19:53:50.142Z,22.70
2023-06-04T19:56:18.086Z,22.70
2023-06-04T19:58:45.967Z,22.70
2023-06-04T20:01:13.883Z,22.60
2023-06-04T20:03:44.165Z,22.60
2023-06-04T20:06:13.788Z,22.50
2023-06-04T20:08:42.489Z,22.50
2023-06-04T20:11:10.618Z,22.40
2023-06-04T20:13:38.617Z,22.40
2023-06-04T20:16:06.726Z,22.30
2023-06-04T20:18:35.079Z,22.20
2023-06-04T20:21:03.040Z,22.20
2023-06-04T20:23:32.297Z,22.10
2023-06-04T20:26:00.620Z,22.00
2023-06-04T20:28:30.348Z,22.00
2023-06-04T20:30:58.302Z,21.90
2023-06-04T20:33:27.370Z,21.80
2023-06-04T20:35:55.289Z,21.80
2023-06-04T20:38:23.239Z,21.70
2023-06-04T20:40:52.526Z,21.70
2023-06-04T20:43:20.776Z,21.60
2023-06-04T20:45:51.849Z,21.50
2023-06-04T20:48:19.923Z,21.50
2023-06-04T20:50:48.299Z,21.40
2023-06-04T20:53:16.683Z,21.30
2023-06-04T20:55:44.831Z,21.30
2023-06-04T20:58:14.932Z,21.30
2023-06-04T21:00:42.915Z,21.20
2023-06-04T21:03:11.066Z,21.20
2023-06-04T21:05:39.077Z,21.10
2023-06-04T21:08:06.982Z,21.00
2023-06-04T21:10:35.041Z,21.00
2023-06-04T21:13:02.861Z,20.90
2023-06-04T21:15:32.119Z,20.90
2023-06-04T21:18:00.181Z,20.80
2023-06-04T21:20:28.132Z,20.80
2023-06-04T21:22:55.976Z,20.70
2023-06-04T21:25:23.948Z,20.70
2023-06-04T21:27:51.815Z,20.70
2023-06-04T21:30:19.793Z,20.60
2023-06-04T21:32:49.505Z,20.60
2023-06-04T21:35:17.485Z,20.50
2023-06-04T21:37:45.341Z,20.50
2023-06-04T21:40:13.386Z,20.50
2023-06-04T21:42:41.328Z,20.40
2023-06-04T21:45:10.495Z,20.40
2023-06-04T21:47:38.938Z,20.40
2023-06-04T21:50:09.190Z,20.30
2023-06-04T21:52:37.064Z,20.30
2023-06-04T21:55:05.631Z,20.30
2023-06-04T21:57:33.504Z,20.20
2023-06-04T22:00:01.376Z,20.20
2023-06-04T22:02:29.278Z,20.10
2023-06-04T22:04:57.182Z,20.10
2023-06-04T22:07:26.413Z,20.10
2023-06-04T22:09:54.254Z,20.10
2023-06-04T22:12:23.633Z,20.00
2023-06-04T22:14:51.617Z,20.00
2023-06-04T22:17:19.946Z,19.90
2023-06-04T22:19:47.897Z,19.90
2023-06-04T22:22:15.847Z,19.90
2023-06-04T22:24:44.991Z,19.80
2023-06-04T22:27:12.836Z,19.80
2023-06-04T22:29:40.707Z,19.70
2023-06-04T22:32:08.597Z,19.70
2023-06-04T22:34:36.585Z,19.60
2023-06-04T22:37:04.456Z,19.60
2023-06-04T22:39:32.399Z,19.50
2023-06-04T22:42:01.735Z,19.50
2023-06-04T22:44:29.656Z,19.40
2023-06-04T22:46:57.535Z,19.40
2023-06-04T22:49:25.625Z,19.30
2023-06-04T22:51:53.626Z,19.30
2023-06-04T22:54:21.492Z,19.20
2023-06-04T22:56:49.384Z,19.20
2023-06-04T22:59:18.622Z,19.10
2023-06-04T23:01:46.600Z,19.10
2023-06-04T23:04:14.526Z,19.00
2023-06-04T23:06:42.372Z,19.00
2023-06-04T23:09:10.223Z,19.00
2023-06-04T23:11:38.121Z,19.00
2023-06-04T23:14:06.092Z,19.00
2023-06-04T23:16:35.268Z,18.90
2023-06-04T23:19:03.290Z,19.00
2023-06-04T23:21:31.168Z,18.90
2023-06-04T23:23:59.223Z,18.90
2023-06-04T23:26:27.406Z,18.90
2023-06-04T23:28:55.418Z,18.90
2023-06-04T23:31:23.330Z,18.80
2023-06-04T23:33:52.560Z,18.70
2023-06-04T23:36:20.438Z,18.70
2023-06-04T23:38:48.560Z,18.60
2023-06-04T23:41:16.514Z,18.50
2023-06-04T23:43:44.361Z,18.50
2023-06-04T23:46:12.237Z,18.50
2023-06-04T23:48:40.099Z,18.50
2023-06-04T23:51:10.115Z,18.50
2023-06-04T23:53:38.288Z,18.50
2023-06-04T23:56:06.133Z,18.50
2023-06-04T23:58:34.042Z,18.50
